Welcome to Northern Hawkes Bay. New Zealand.
PWS Header
      nz Flag



Hit Counter


W3C Valid W3C Valid logo


    Wairoa

Select any of the Stations below to visit their websites.










Historic Data from Weather Underground
Select the location of interest below. Wairoa is the default. Please have patience, this Data is slow to load in.
Northern Hawkes Bay Historical Data
Daily Summary for March 8, 2017 Units:  English    Metric   Both
« Previous Day
Next Day »
Daily Weekly Monthly Yearly Custom
  High: Low: Average:
Temperature: 61.3 °F 55 °F 57.7 °F
Dew Point: 58.3 °F 51.4 °F 55.2 °F
Humidity: 99% 74% 92%
Wind Speed: 19mph 0mph 6.9mph
Wind Gust: 28.2mph - -
Wind- - SSW
Pressure: 30.2 in 29.9 in -
Precipitation: 1.72 in    
Historical Graphs
 
 
Tabular Data for March 8, 2017
Time Temperature Dew Point Pressure Wind Wind Speed Wind Gust Humidity Rainfall Rate (Hourly) solar
00:00 58.1 °F 57.7 °F 29.9 in WSW 12.1 mph 25.1 mph 99% 0.33 in 0 W/m2
00:05 58.1 °F 57.7 °F 29.9 in WSW 17.4 mph 25.1 mph 99% 0.35 in 0 W/m2
00:10 58.3 °F 57.9 °F 29.9 in SSW 13.6 mph 24.4 mph 99% 0.34 in 0 W/m2
00:15 58.3 °F 57.9 °F 29.9 in SW 15.2 mph 25.9 mph 99% 0.34 in 0 W/m2
00:20 58.1 °F 57.7 °F 29.9 in SW 9.8 mph 25.9 mph 99% 0.32 in 0 W/m2
00:25 58.1 °F 57.7 °F 29.9 in SW 18.3 mph 25.9 mph 99% 0.33 in 0 W/m2
00:30 57.9 °F 57.7 °F 29.9 in SW 15.2 mph 27.3 mph 99% 0.34 in 0 W/m2
00:35 57.9 °F 57.7 °F 29.9 in SW 12.1 mph 27.3 mph 99% 0.33 in 0 W/m2
00:41 57.9 °F 57.7 °F 29.9 in WSW 19 mph 25.9 mph 99% 0.32 in 0 W/m2
00:46 57.9 °F 57.7 °F 29.9 in SW 13.6 mph 25.9 mph 99% 0.3 in 0 W/m2
00:51 57.9 °F 57.7 °F 29.9 in SSW 14.5 mph 25.9 mph 99% 0.3 in 0 W/m2
00:56 58.1 °F 57.7 °F 29.9 in SW 14.5 mph 27.3 mph 99% 0.27 in 0 W/m2
01:01 58.3 °F 57.9 °F 29.9 in SW 13.6 mph 27.3 mph 99% 0.27 in 0 W/m2
01:06 58.3 °F 57.9 °F 29.9 in SSW 12.1 mph 23.5 mph 99% 0.25 in 0 W/m2
01:11 58.3 °F 57.9 °F 29.9 in SSW 15.9 mph 23.5 mph 99% 0.24 in 0 W/m2
01:16 58.5 °F 58.3 °F 29.9 in SSW 13 mph 22.8 mph 99% 0.22 in 0 W/m2
01:21 58.3 °F 57.9 °F 29.9 in SW 12.1 mph 23.5 mph 99% 0.22 in 0 W/m2
01:26 58.3 °F 57.9 °F 29.9 in SW 11.4 mph 24.4 mph 99% 0.21 in 0 W/m2
01:31 57.9 °F 57.7 °F 29.9 in SW 15.2 mph 24.4 mph 99% 0.24 in 0 W/m2
01:36 57.9 °F 57.7 °F 29.9 in SSW 7.6 mph 25.1 mph 99% 0.24 in 0 W/m2
01:41 57.7 °F 57.6 °F 29.9 in South 14.5 mph 28.2 mph 99% 0.24 in 0 W/m2
01:46 57.6 °F 57.4 °F 29.9 in South 18.3 mph 28.2 mph 99% 0.22 in 0 W/m2
01:51 57.9 °F 57.7 °F 29.9 in South 15.9 mph 25.1 mph 99% 0.22 in 0 W/m2
01:56 57.9 °F 57.7 °F 29.9 in SSW 14.5 mph 27.3 mph 99% 0.22 in 0 W/m2
02:01 58.1 °F 57.7 °F 29.9 in SSW 12.1 mph 27.3 mph 99% 0.21 in 0 W/m2
02:06 58.1 °F 57.7 °F 29.9 in SSW 13.6 mph 25.9 mph 99% 0.21 in 0 W/m2
02:11 58.1 °F 57.6 °F 29.9 in SSW 9.2 mph 25.9 mph 98% 0.2 in 0 W/m2
02:16 58.1 °F 57.6 °F 29.9 in SSW 15.2 mph 22.8 mph 98% 0.2 in 0 W/m2
02:21 58.3 °F 57.4 °F 29.9 in SSW 11.4 mph 22.1 mph 97% 0.19 in 0 W/m2
02:26 58.3 °F 57.4 °F 29.9 in SSW 13 mph 19 mph 97% 0.19 in 0 W/m2
02:31 58.1 °F 57.4 °F 29.9 in SSW 13 mph 21.3 mph 97% 0.15 in 0 W/m2
02:36 58.1 °F 57.4 °F 29.9 in SSW 13 mph 21.3 mph 97% 0.14 in 0 W/m2
02:41 58.3 °F 57.4 °F 29.9 in SSW 13 mph 21.3 mph 97% 0.14 in 0 W/m2
02:46 58.3 °F 57.4 °F 29.9 in South 9.2 mph 21.3 mph 97% 0.13 in 0 W/m2
02:51 58.3 °F 57.4 °F 29.9 in SSW 11.4 mph 20.6 mph 97% 0.14 in 0 W/m2
02:56 57.9 °F 57 °F 29.9 in SSW 12.1 mph 23.5 mph 97% 0.14 in 0 W/m2
03:01 57.9 °F 57 °F 29.9 in SSW 14.5 mph 25.9 mph 97% 0.15 in 0 W/m2
03:06 57.6 °F 56.7 °F 29.9 in South 13.6 mph 25.9 mph 97% 0.15 in 0 W/m2
03:11 57.6 °F 56.7 °F 29.9 in SSW 12.1 mph 20.6 mph 97% 0.14 in 0 W/m2
03:16 57.6 °F 56.7 °F 29.9 in SSW 15.2 mph 22.8 mph 97% 0.15 in 0 W/m2
03:21 57.2 °F 56.5 °F 29.9 in South 15.9 mph 22.8 mph 97% 0.15 in 0 W/m2
03:26 57 °F 56.5 °F 29.9 in South 13 mph 22.8 mph 98% 0.14 in 0 W/m2
03:31 57 °F 56.8 °F 29.9 in SSW 12.1 mph 22.8 mph 99% 0.14 in 0 W/m2
03:36 56.8 °F 56.3 °F 29.9 in South 9.8 mph 19 mph 98% 0.14 in 0 W/m2
03:41 57.2 °F 56.5 °F 29.9 in SSW 9.8 mph 19.7 mph 97% 0.13 in 0 W/m2
03:46 57.4 °F 56.5 °F 29.9 in SSW 15.9 mph 19.7 mph 97% 0.12 in 0 W/m2
03:51 57 °F 56.1 °F 29.9 in SSW 12.1 mph 21.3 mph 97% 0.13 in 0 W/m2
03:56 56.7 °F 56.1 °F 29.9 in SSW 13 mph 21.3 mph 98% 0.13 in 0 W/m2
04:01 56.5 °F 55.9 °F 29.9 in SSW 15.2 mph 20.6 mph 98% 0.11 in 0 W/m2
04:06 56.7 °F 56.1 °F 29.9 in SSW 9.8 mph 21.3 mph 98% 0.09 in 0 W/m2
04:11 56.5 °F 55.9 °F 29.9 in SSW 9.8 mph 21.3 mph 98% 0.09 in 0 W/m2
04:16 56.3 °F 55.8 °F 29.9 in SSW 9.8 mph 18.3 mph 98% 0.09 in 0 W/m2
04:21 56.5 °F 55.9 °F 29.9 in South 13 mph 15.9 mph 98% 0.09 in 0 W/m2
04:26 57.4 °F 56.5 °F 29.9 in SSW 15.2 mph 19 mph 97% 0.09 in 0 W/m2
04:31 56.7 °F 56.5 °F 29.9 in SSW 8.3 mph 21.3 mph 99% 0.09 in 0 W/m2
04:36 56.5 °F 56.1 °F 29.9 in SSW 14.5 mph 21.3 mph 99% 0.09 in 0 W/m2
04:41 55.9 °F 55.8 °F 29.9 in South 12.1 mph 24.4 mph 99% 0.08 in 0 W/m2
04:46 56.1 °F 55.9 °F 29.9 in SSW 9.8 mph 24.4 mph 99% 0.07 in 0 W/m2
04:51 56.3 °F 55.8 °F 29.9 in SW 10.7 mph 22.1 mph 98% 0.07 in 0 W/m2
04:56 56.3 °F 55.6 °F 29.9 in SW 10.7 mph 17.4 mph 97% 0.08 in 0 W/m2
05:01 56.8 °F 55.8 °F 29.9 in SW 10.7 mph 19.7 mph 96% 0.08 in 0 W/m2
05:06 56.8 °F 55.4 °F 29.9 in SSW 11.4 mph 19.7 mph 95% 0.09 in 0 W/m2
05:11 57.4 °F 55.8 °F 29.9 in SSW 9.8 mph 20.6 mph 94% 0.12 in 0 W/m2
05:16 57 °F 55.9 °F 29.9 in SSW 11.4 mph 20.6 mph 96% 0.12 in 0 W/m2
05:21 57 °F 55.9 °F 29.9 in South 15.2 mph 20.6 mph 96% 0.11 in 0 W/m2
05:26 57.2 °F 55.6 °F 30 in SSW 10.7 mph 20.6 mph 94% 0.12 in 0 W/m2
05:31 57 °F 55.2 °F 30 in SSW 7.6 mph 20.6 mph 94% 0.11 in 0 W/m2
05:36 57 °F 55.2 °F 30 in SSW 9.8 mph 18.3 mph 94% 0.09 in 0 W/m2
05:41 56.7 °F 55.2 °F 30 in WSW 7.6 mph 15.9 mph 95% 0.09 in 0 W/m2
05:46 56.5 °F 55.6 °F 30 in SW 5.4 mph 15.9 mph 97% 0.09 in 0 W/m2
05:51 56.1 °F 55.6 °F 30 in SW 9.2 mph 15.9 mph 98% 0.09 in 0 W/m2
05:56 55.8 °F 55.2 °F 30 in WSW 9.8 mph 15.9 mph 98% 0.07 in 0 W/m2
06:01 55.4 °F 54.9 °F 30 in WSW 10.7 mph 15.9 mph 98% 0.07 in 0 W/m2
06:06 55.2 °F 54.3 °F 30 in WSW 12.1 mph 20.6 mph 97% 0.07 in 0 W/m2
06:11 55.2 °F 54.3 °F 30 in WSW 8.3 mph 20.6 mph 97% 0.07 in 0 W/m2
06:16 55 °F 54.1 °F 30 in WSW 9.2 mph 17.4 mph 97% 0.07 in 0 W/m2
06:21 55 °F 54.1 °F 30 in WSW 10.7 mph 17.4 mph 97% 0.07 in 0 W/m2
06:26 55 °F 54.1 °F 30 in WSW 6 mph 16.8 mph 97% 0.08 in 0 W/m2
06:31 55 °F 54.1 °F 30 in West 12.1 mph 15.2 mph 97% 0.09 in 0 W/m2
06:36 55.4 °F 55 °F 30 in WSW 6 mph 15.2 mph 99% 0.11 in 0 W/m2
06:41 55.2 °F 54.3 °F 30 in SSW 9.8 mph 15.2 mph 97% 0.12 in 0 W/m2
06:46 55.6 °F 55.2 °F 30 in SSW 12.1 mph 17.4 mph 99% 0.13 in 0 W/m2
06:51 55.4 °F 55 °F 30 in SW 7.6 mph 17.4 mph 99% 0.13 in 0 W/m2
06:56 55.4 °F 55 °F 30 in WSW 3.8 mph 15.9 mph 99% 0.13 in 0 W/m2
07:01 55.4 °F 55 °F 30 in SW 6 mph 13.6 mph 99% 0.13 in 0 W/m2
07:06 55.2 °F 54.3 °F 30 in SW 9.8 mph 14.5 mph 97% 0.14 in 0 W/m2
07:11 55.2 °F 54.3 °F 30 in SW 7.6 mph 15.9 mph 97% 0.14 in 0 W/m2
07:16 55.2 °F 54.3 °F 30 in WSW 8.3 mph 15.9 mph 97% 0.13 in 0 W/m2
07:21 55.2 °F 54.3 °F 30 in WSW 6.9 mph 15.9 mph 97% 0.13 in 0 W/m2
07:26 55.2 °F 54.3 °F 30 in WSW 6.9 mph 15.9 mph 97% 0.13 in 1 W/m2
07:31 55.2 °F 54.3 °F 30 in SW 7.6 mph 16.8 mph 97% 0.13 in 1 W/m2
07:36 55.2 °F 54.3 °F 30 in SW 6.9 mph 16.8 mph 97% 0.13 in 4 W/m2
07:41 55.4 °F 55 °F 30 in WSW 9.2 mph 16.8 mph 99% 0.13 in 6 W/m2
07:46 55.4 °F 55 °F 30 in WSW 8.3 mph 15.2 mph 99% 0.13 in 10 W/m2
07:51 55.4 °F 55 °F 30 in WSW 6 mph 15.2 mph 99% 0.12 in 11 W/m2
07:56 55.4 °F 55 °F 30 in WSW 6 mph 15.2 mph 99% 0.12 in 4 W/m2
08:01 55.6 °F 55.2 °F 30 in WSW 3.8 mph 13 mph 99% 0.13 in 9 W/m2
08:06 55.6 °F 55.2 °F 30 in WSW 6.9 mph 13 mph 99% 0.11 in 13 W/m2
08:11 55.8 °F 55.6 °F 30 in SW 6 mph 12.1 mph 99% 0.11 in 7 W/m2
08:16 55.8 °F 55.6 °F 30 in SW 7.6 mph 12.1 mph 99% 0.12 in 10 W/m2
08:21 55.6 °F 55.2 °F 30 in SW 4.5 mph 12.1 mph 99% 0.11 in 13 W/m2
08:26 55.6 °F 55.2 °F 30 in SW 6 mph 12.1 mph 99% 0.11 in 11 W/m2
08:31 55.6 °F 55.2 °F 30 in SW 9.2 mph 15.2 mph 99% 0.11 in 13 W/m2
08:36 55.6 °F 55.2 °F 30 in SW 9.2 mph 15.2 mph 99% 0.11 in 19 W/m2
08:41 55.8 °F 55.6 °F 30 in SW 9.2 mph 14.5 mph 99% 0.11 in 12 W/m2
08:46 55.9 °F 55.8 °F 30 in SW 8.3 mph 14.5 mph 99% 0.11 in 18 W/m2
08:51 56.1 °F 55.9 °F 30 in SSW 6 mph 14.5 mph 99% 0.12 in 27 W/m2
08:56 56.1 °F 55.9 °F 30 in SSW 7.6 mph 13.6 mph 99% 0.11 in 19 W/m2
09:01 55.9 °F 55.8 °F 30 in SW 6 mph 13 mph 99% 0.11 in 26 W/m2
09:06 55.9 °F 55.8 °F 30 in SW 8.3 mph 13 mph 99% 0.11 in 22 W/m2
09:11 55.9 °F 55.8 °F 30 in SW 10.7 mph 15.2 mph 99% 0.11 in 13 W/m2
09:16 56.1 °F 55.9 °F 30 in SW 10.7 mph 15.2 mph 99% 0.09 in 19 W/m2
09:21 56.3 °F 55.9 °F 30 in SW 5.4 mph 14.5 mph 99% 0.11 in 23 W/m2
09:26 56.5 °F 56.1 °F 30 in SSW 3.1 mph 13.6 mph 99% 0.09 in 14 W/m2
09:31 56.5 °F 56.1 °F 30 in SSW 6.9 mph 10.7 mph 99% 0.08 in 19 W/m2
09:36 56.5 °F 56.1 °F 30 in SSW 3.8 mph 10.7 mph 99% 0.08 in 15 W/m2
09:38 56.5 °F 56.1 °F 30 in SSW 4.5 mph 10.7 mph 99% 0.07 in 13 W/m2
09:43 56.3 °F 55.9 °F 30 in SW 7.6 mph 13.6 mph 99% 0.08 in 20 W/m2
09:48 56.3 °F 55.9 °F 30 in SW 9.2 mph 13.6 mph 99% 0.07 in 17 W/m2
09:53 56.3 °F 55.9 °F 30 in SW 6 mph 13.6 mph 99% 0.08 in 17 W/m2
09:58 56.3 °F 55.9 °F 30 in SW 9.2 mph 15.2 mph 99% 0.09 in 22 W/m2
10:03 56.1 °F 55.9 °F 30 in WSW 7.6 mph 15.2 mph 99% 0.08 in 18 W/m2
10:08 55.9 °F 55.8 °F 30 in SW 6 mph 13.6 mph 99% 0.08 in 24 W/m2
10:13 55.8 °F 55.6 °F 30 in SW 11.4 mph 13 mph 99% 0.09 in 23 W/m2
10:18 55.8 °F 55.6 °F 30.1 in SW 8.3 mph 13.6 mph 99% 0.09 in 32 W/m2
10:23 55.8 °F 55.6 °F 30.1 in SW 3.8 mph 13.6 mph 99% 0.11 in 46 W/m2
10:28 55.9 °F 55.8 °F 30.1 in SW 9.2 mph 12.1 mph 99% 0.09 in 38 W/m2
10:33 55.8 °F 55.6 °F 30.1 in WSW 4.5 mph 11.4 mph 99% 0.11 in 13 W/m2
10:38 55.9 °F 55.8 °F 30.1 in WSW 6 mph 10.7 mph 99% 0.12 in 15 W/m2
10:43 56.1 °F 55.9 °F 30.1 in SSW 6 mph 9.2 mph 99% 0.13 in 16 W/m2
10:48 56.1 °F 55.9 °F 30.1 in South 5.4 mph 11.4 mph 99% 0.15 in 32 W/m2
10:53 55.8 °F 55.6 °F 30.1 in South 3.1 mph 11.4 mph 99% 0.15 in 32 W/m2
10:58 55.9 °F 55.8 °F 30.1 in SSE 6.9 mph 10.7 mph 99% 0.15 in 41 W/m2
11:03 55.9 °F 55.8 °F 30.1 in SSE 3.8 mph 12.1 mph 99% 0.17 in 44 W/m2
11:08 55.9 °F 55.8 °F 30.1 in South 5.4 mph 12.1 mph 99% 0.15 in 49 W/m2
11:13 55.8 °F 55.6 °F 30.1 in SSE 3.1 mph 9.2 mph 99% 0.15 in 56 W/m2
11:18 55.8 °F 55.2 °F 30.1 in Calm   7.6 mph 98% 0.15 in 82 W/m2
11:23 56.1 °F 55.2 °F 30.1 in SE 0.7 mph 7.6 mph 97% 0.14 in 108 W/m2
11:28 56.5 °F 55.6 °F 30.1 in Calm   3.1 mph 97% 0.14 in 120 W/m2
11:33 56.7 °F 56.1 °F 30.1 in Calm   3.1 mph 98% 0.13 in 133 W/m2
11:38 57.4 °F 56.5 °F 30.1 in Calm     97% 0.09 in 161 W/m2
11:43 57.4 °F 56.5 °F 30.1 in Calm     97% 0.07 in 203 W/m2
11:48 57.9 °F 57 °F 30.1 in Calm     97% 0.06 in 209 W/m2
11:53 58.1 °F 57.4 °F 30.1 in Calm   3.1 mph 97% 0.06 in 90 W/m2
11:58 58.3 °F 57.2 °F 30.1 in Calm   3.1 mph 96% 0.05 in 29 W/m2
12:03 57.7 °F 56.7 °F 30.1 in Calm     96% 0.04 in 32 W/m2
12:08 57.6 °F 56.5 °F 30.1 in West 1.6 mph 3.1 mph 96% 0.04 in 68 W/m2
12:13 57.4 °F 56.3 °F 30.1 in West 0.7 mph 4.5 mph 96% 0.02 in 85 W/m2
12:18 57 °F 56.1 °F 30.1 in NW 3.1 mph 6.9 mph 97% 0.01 in 78 W/m2
12:23 56.3 °F 55.6 °F 30.1 in Calm   6.9 mph 97% 0.01 in 49 W/m2
12:28 56.1 °F 55.2 °F 30.1 in Calm   5.4 mph 97% 0.01 in 56 W/m2
12:33 56.1 °F 55.2 °F 30.1 in Calm   3.8 mph 97% 0.02 in 117 W/m2
12:38 56.1 °F 55.6 °F 30.1 in NNW 1.6 mph 3.8 mph 98% 0.02 in 128 W/m2
12:43 56.1 °F 55.6 °F 30.1 in WNW 3.1 mph 5.4 mph 98% 0.02 in 182 W/m2
12:48 57 °F 56.8 °F 30.1 in SW 3.8 mph 6.9 mph 99% 0.01 in 211 W/m2
12:53 57.6 °F 57 °F 30.1 in SSW 3.8 mph 6.9 mph 98% 0.01 in 191 W/m2
12:58 57.6 °F 56.7 °F 30.1 in SSW 3.8 mph 6.9 mph 97% 0.01 in 198 W/m2
13:03 58.3 °F 57.2 °F 30.1 in Calm   6.9 mph 96% 0.01 in 203 W/m2
13:08 58.6 °F 57.6 °F 30.1 in SW 1.6 mph 5.4 mph 96% 0.01 in 111 W/m2
13:13 58.6 °F 56.8 °F 30.1 in South 0.7 mph 4.5 mph 94% 0.02 in 88 W/m2
13:18 58.6 °F 56.8 °F 30.1 in Calm   4.5 mph 94% 0.02 in 83 W/m2
13:23 58.6 °F 56.8 °F 30.1 in ENE 0.7 mph 3.1 mph 94% 0.04 in 99 W/m2
13:28 58.5 °F 56.8 °F 30.1 in Calm   3.1 mph 94% 0.05 in 153 W/m2
13:33 58.3 °F 56.7 °F 30.1 in Calm   3.1 mph 94% 0.04 in 202 W/m2
13:38 58.3 °F 56.8 °F 30.1 in NW 1.6 mph 6 mph 95% 0.04 in 113 W/m2
13:43 58.3 °F 56.8 °F 30.1 in Calm   6 mph 95% 0.04 in 78 W/m2
13:48 57.9 °F 56.5 °F 30.1 in SSW 5.4 mph 7.6 mph 95% 0.05 in 89 W/m2
13:53 57.9 °F 56.5 °F 30.1 in SSE 6 mph 9.2 mph 95% 0.05 in 116 W/m2
13:58 58.1 °F 56.7 °F 30.1 in Calm   9.2 mph 95% 0.05 in 151 W/m2
14:03 58.3 °F 56.8 °F 30.1 in East 1.6 mph 8.3 mph 95% 0.05 in 147 W/m2
14:08 58.5 °F 57.4 °F 30.1 in Calm   6 mph 96% 0.05 in 151 W/m2
14:13 58.6 °F 57.6 °F 30 in East 2.2 mph 6 mph 96% 0.04 in 153 W/m2
14:18 58.8 °F 57 °F 30.1 in East 2.2 mph 8.3 mph 94% 0.04 in 165 W/m2
14:23 59 °F 56.1 °F 30.1 in ESE 4.5 mph 9.2 mph 90% 0.02 in 179 W/m2
14:28 59.7 °F 54.7 °F 30 in SE 4.5 mph 9.2 mph 83% 0.01 in 194 W/m2
14:33 60.3 °F 53.4 °F 30 in SE 4.5 mph 9.2 mph 78% 0.01 in 212 W/m2
14:38 60.8 °F 54.9 °F 30 in ESE 1.6 mph 9.2 mph 81% 0.01 in 203 W/m2
14:43 61.2 °F 55.9 °F 30.1 in East 0.7 mph 7.6 mph 83% 0.01 in 191 W/m2
14:48 61.3 °F 56.1 °F 30.1 in SE 4.5 mph 12.1 mph 83% 0 in 141 W/m2
14:53 61.2 °F 54.7 °F 30 in South 5.4 mph 12.1 mph 79% 0 in 97 W/m2
14:58 60.4 °F 54.7 °F 30.1 in SSE 7.6 mph 15.9 mph 81% 0 in 123 W/m2
15:03 59.9 °F 54.7 °F 30.1 in South 6.9 mph 15.9 mph 83% 0.01 in 153 W/m2
15:08 59.7 °F 54.9 °F 30.1 in SSW 3.8 mph 13 mph 84% 0.01 in 157 W/m2
15:13 59.9 °F 54.7 °F 30.1 in Calm   9.2 mph 83% 0.01 in 147 W/m2
15:18 60.4 °F 54.7 °F 30.1 in SSE 5.4 mph 8.3 mph 81% 0.01 in 121 W/m2
15:23 61 °F 54.3 °F 30.1 in SSE 5.4 mph 10.7 mph 79% 0.01 in 105 W/m2
15:28 60.3 °F 53.4 °F 30.1 in SE 2.2 mph 10.7 mph 78% 0.01 in 120 W/m2
15:33 60.1 °F 53.2 °F 30.1 in SSE 5.4 mph 9.8 mph 78% 0.01 in 86 W/m2
15:38 59.5 °F 53.8 °F 30.1 in South 10.7 mph 14.5 mph 81% 0.04 in 78 W/m2
15:43 58.6 °F 55 °F 30.1 in South 5.4 mph 15.9 mph 88% 0.07 in 72 W/m2
15:48 58.3 °F 55.4 °F 30.1 in SSE 7.6 mph 15.9 mph 90% 0.08 in 64 W/m2
15:53 58.8 °F 55.9 °F 30.1 in South 4.5 mph 13.6 mph 90% 0.08 in 50 W/m2
15:58 59.2 °F 55 °F 30.1 in SSE 6.9 mph 13.6 mph 86% 0.08 in 88 W/m2
16:03 59.4 °F 54.9 °F 30.1 in SE 6.9 mph 13 mph 85% 0.07 in 91 W/m2
16:08 59.7 °F 54.7 °F 30.1 in SSE 6 mph 15.2 mph 83% 0.07 in 125 W/m2
16:13 60.3 °F 54.9 °F 30.1 in South 7.6 mph 15.2 mph 82% 0.07 in 159 W/m2
16:34 60.3 °F 54.9 °F 30.1 in South 11.4 mph 17.4 mph 82% 0.07 in 86 W/m2
16:39 60.3 °F 54.3 °F 30.1 in South 9.8 mph 19 mph 81% 0.04 in 96 W/m2
16:44 60.1 °F 53.6 °F 30.1 in South 6.9 mph 19 mph 79% 0 in 101 W/m2
16:49 60.3 °F 53.8 °F 30.1 in South 5.4 mph 17.4 mph 79% 0 in 98 W/m2
16:54 60.3 °F 53.8 °F 30.1 in SSE 7.6 mph 14.5 mph 79% 0 in 96 W/m2
16:59 60.4 °F 54 °F 30.1 in SSE 9.8 mph 14.5 mph 79% 0 in 87 W/m2
17:05 60.3 °F 53.4 °F 30.1 in South 8.3 mph 13.6 mph 78% 0 in 83 W/m2
17:10 60.4 °F 53.2 °F 30.1 in South 6.9 mph 13 mph 77% 0 in 82 W/m2
17:16 60.4 °F 52.5 °F 30.1 in South 7.6 mph 15.2 mph 75% 0 in 84 W/m2
17:21 60.4 °F 52.5 °F 30.1 in SSE 13 mph 15.2 mph 75% 0 in 89 W/m2
17:26 60.3 °F 52 °F 30.1 in SSE 6 mph 15.2 mph 74% 0 in 70 W/m2
17:31 60.3 °F 52.3 °F 30.1 in South 7.6 mph 13 mph 75% 0 in 60 W/m2
17:36 60.4 °F 52.2 °F 30.1 in SSE 3.1 mph 9.8 mph 74% 0 in 79 W/m2
17:37 60.4 °F 52.2 °F 30.1 in SSE 0.7 mph 9.8 mph 74% 0 in 80 W/m2
17:42 60.6 °F 52.7 °F 30.1 in SSE 3.8 mph 9.2 mph 75% 0 in 62 W/m2
17:47 60.3 °F 54.9 °F 30.1 in South 6.9 mph 15.9 mph 82% 0 in 43 W/m2
17:52 59.7 °F 54.9 °F 30.1 in South 9.2 mph 15.9 mph 84% 0 in 72 W/m2
17:53 59.5 °F 54.7 °F 30.1 in South 10.7 mph 15.9 mph 84% 0 in 66 W/m2
17:58 58.6 °F 55 °F 30.1 in South 9.8 mph 15.2 mph 88% 0 in 50 W/m2
18:03 57.9 °F 55 °F 30.1 in South 5.4 mph 14.5 mph 90% 0 in 39 W/m2
18:08 57.6 °F 55.2 °F 30.1 in South 7.6 mph 14.5 mph 92% 0 in 36 W/m2
18:13 57.7 °F 55.4 °F 30.1 in South 9.2 mph 13 mph 92% 0 in 25 W/m2
18:18 57.6 °F 55 °F 30.1 in SSE 7.6 mph 12.1 mph 91% 0 in 33 W/m2
18:23 57.7 °F 54.5 °F 30.1 in South 4.5 mph 10.7 mph 89% 0 in 34 W/m2
18:28 58.5 °F 54.3 °F 30.1 in South 3.8 mph 13 mph 86% 0 in 29 W/m2
18:33 58.8 °F 54.3 °F 30.1 in SSE 3.1 mph 13 mph 85% 0 in 18 W/m2
18:38 59.2 °F 53.4 °F 30.1 in SSE 0.7 mph 9.2 mph 81% 0 in 22 W/m2
18:43 59.4 °F 54 °F 30.1 in SSE 3.1 mph 9.2 mph 82% 0 in 20 W/m2
18:48 59.5 °F 54.3 °F 30.1 in SE 3.8 mph 7.6 mph 83% 0 in 23 W/m2
18:53 59.2 °F 54 °F 30.1 in ESE 1.6 mph 9.8 mph 83% 0 in 19 W/m2
18:58 59 °F 54.1 °F 30.1 in SE 6 mph 10.7 mph 84% 0 in 17 W/m2
19:03 59.4 °F 52.5 °F 30.1 in South 7.6 mph 14.5 mph 78% 0 in 17 W/m2
19:08 59.7 °F 52.9 °F 30.1 in South 3.8 mph 14.5 mph 78% 0 in 13 W/m2
19:13 59.7 °F 52.2 °F 30.1 in South 6 mph 13 mph 76% 0 in 8 W/m2
19:18 59.9 °F 52 °F 30.1 in South 6 mph 10.7 mph 75% 0 in 5 W/m2
19:23 60.1 °F 51.8 °F 30.1 in South 6.9 mph 13 mph 74% 0 in 4 W/m2
19:28 59.7 °F 54.1 °F 30.1 in South 10.7 mph 15.9 mph 82% 0 in 2 W/m2
19:33 59.2 °F 54.3 °F 30.1 in South 9.8 mph 15.9 mph 84% 0 in 1 W/m2
19:38 59.2 °F 53.8 °F 30.1 in South 7.6 mph 14.5 mph 82% 0 in 0 W/m2
19:43 59.2 °F 53.4 °F 30.1 in SSE 6 mph 11.4 mph 81% 0 in 0 W/m2
19:48 59.4 °F 52.9 °F 30.1 in SSE 4.5 mph 9.8 mph 79% 0 in 0 W/m2
19:53 59.5 °F 52.7 °F 30.1 in SSE 4.5 mph 7.6 mph 78% 0 in 0 W/m2
19:58 59.4 °F 52.9 °F 30.1 in SE 6 mph 13 mph 79% 0.01 in 0 W/m2
20:03 58.8 °F 53.2 °F 30.1 in ESE 2.2 mph 13 mph 82% 0.01 in 0 W/m2
20:08 58.1 °F 53.2 °F 30.1 in ENE 1.6 mph 7.6 mph 84% 0.01 in 0 W/m2
20:13 57.7 °F 52.9 °F 30.1 in ENE 3.1 mph 6 mph 84% 0.01 in 0 W/m2
20:18 58.1 °F 53.2 °F 30.1 in ENE 4.5 mph 6 mph 84% 0.01 in 0 W/m2
20:23 58.3 °F 53.2 °F 30.1 in ENE 2.2 mph 6 mph 83% 0.01 in 0 W/m2
20:28 58.3 °F 53.2 °F 30.1 in NE 3.1 mph 6 mph 83% 0.01 in 0 W/m2
20:33 58.6 °F 52.5 °F 30.1 in ENE 6 mph 8.3 mph 80% 0.01 in 0 W/m2
20:38 59 °F 52.2 °F 30.1 in East 2.2 mph 8.3 mph 78% 0.01 in 0 W/m2
20:43 59.2 °F 52.3 °F 30.1 in East 2.2 mph 6.9 mph 78% 0.01 in 0 W/m2
20:48 59.2 °F 52 °F 30.1 in ENE 2.2 mph 6 mph 77% 0.01 in 0 W/m2
20:53 59 °F 52.2 °F 30.1 in ENE 0.7 mph 6 mph 78% 0.01 in 0 W/m2
20:58 58.8 °F 54 °F 30.1 in SE 2.2 mph 11.4 mph 84% 0 in 0 W/m2
21:03 58.5 °F 54.7 °F 30.1 in SSE 13 mph 15.9 mph 87% 0 in 0 W/m2
21:08 58.3 °F 55 °F 30.1 in South 8.3 mph 15.9 mph 89% 0 in 0 W/m2
21:13 58.3 °F 54.9 °F 30.1 in South 7.6 mph 19 mph 88% 0 in 0 W/m2
21:18 58.3 °F 54.9 °F 30.1 in SSE 6.9 mph 19 mph 88% 0 in 0 W/m2
21:23 58.5 °F 54.7 °F 30.1 in South 6 mph 13 mph 87% 0 in 0 W/m2
21:28 58.6 °F 54.1 °F 30.1 in South 8.3 mph 13 mph 85% 0 in 0 W/m2
21:33 58.8 °F 54 °F 30.1 in South 8.3 mph 15.9 mph 84% 0 in 0 W/m2
21:38 59 °F 54 °F 30.1 in South 7.6 mph 15.9 mph 83% 0 in 0 W/m2
21:43 59.2 °F 53.4 °F 30.1 in South 3.8 mph 12.1 mph 81% 0 in 0 W/m2
21:48 59.4 °F 53.2 °F 30.1 in SSE 4.5 mph 12.1 mph 80% 0 in 0 W/m2
21:53 59.4 °F 52.5 °F 30.1 in SE 5.4 mph 11.4 mph 78% 0 in 0 W/m2
21:58 59.5 °F 52.3 °F 30.1 in SE 4.5 mph 8.3 mph 77% 0 in 0 W/m2
22:03 59.7 °F 51.4 °F 30.1 in South 3.1 mph 8.3 mph 74% 0 in 0 W/m2
22:08 59.9 °F 52 °F 30.1 in South 3.1 mph 8.3 mph 75% 0 in 0 W/m2
22:13 59.9 °F 52 °F 30.2 in Calm   6.9 mph 75% 0 in 0 W/m2
22:18 59.7 °F 51.8 °F 30.1 in Calm   3.8 mph 75% 0 in 0 W/m2
22:23 59.5 °F 52 °F 30.2 in Calm   0.7 mph 76% 0 in 0 W/m2
22:28 59.4 °F 51.8 °F 30.2 in ESE 1.6 mph 3.8 mph 76% 0 in 0 W/m2
22:33 59.5 °F 51.6 °F 30.2 in NE 4.5 mph 6 mph 75% 0 in 0 W/m2
22:38 58.8 °F 53.8 °F 30.2 in North 3.1 mph 6 mph 83% 0 in 0 W/m2
22:43 58.3 °F 53.8 °F 30.2 in North 3.8 mph 6 mph 85% 0 in 0 W/m2
22:48 57.6 °F 53.8 °F 30.2 in North 2.2 mph 5.4 mph 87% 0 in 0 W/m2
22:53 57.4 °F 54 °F 30.2 in NNW 2.2 mph 5.4 mph 88% 0 in 0 W/m2
22:58 57.2 °F 54.3 °F 30.2 in NNW 1.6 mph 4.5 mph 90% 0 in 0 W/m2
23:03 57 °F 54.3 °F 30.2 in North 2.2 mph 4.5 mph 91% 0 in 0 W/m2
23:08 56.8 °F 54.7 °F 30.2 in NNW 1.6 mph 5.4 mph 92% 0 in 0 W/m2
23:13 56.7 °F 54.7 °F 30.2 in NNW 1.6 mph 5.4 mph 93% 0 in 0 W/m2
23:18 56.7 °F 55 °F 30.2 in Calm   3.1 mph 94% 0 in 0 W/m2
23:23 56.5 °F 54.9 °F 30.2 in North 4.5 mph 5.4 mph 94% 0 in 0 W/m2
23:28 56.3 °F 54.9 °F 30.2 in North 4.5 mph 6.9 mph 95% 0 in 0 W/m2
23:33 56.5 °F 55 °F 30.2 in North 2.2 mph 6.9 mph 95% 0 in 0 W/m2
23:38 56.5 °F 55 °F 30.2 in NNW 2.2 mph 6 mph 95% 0 in 0 W/m2
23:43 56.3 °F 54.9 °F 30.2 in NNW 2.2 mph 4.5 mph 95% 0 in 0 W/m2
23:48 56.3 °F 54.9 °F 30.2 in Calm   3.8 mph 95% 0 in 0 W/m2
23:53 56.3 °F 54.9 °F 30.2 in NNW 0.7 mph 3.8 mph 95% 0 in 0 W/m2
23:58 56.3 °F 54.9 °F 30.2 in NW 3.1 mph 4.5 mph 95% 0 in 0 W/m2
Northern Hawkes Bay. New Zealand Historic Data
Compliments of Weather Underground - 2 mb